Bohicon, Benin

10:10 AM WAT on April 21, 2015 (GMT +0100)
Cadjehoun | | Change Station
CLOSE
Current Station
Airport
Location: Cotonou,
Elevation: 16 ft
Nearby Weather Stations

Elev 16 ft 6.36 °N, 2.38 °E | Updated 10 minutes ago

Partly Cloudy
Partly Cloudy
90 °F
Feels Like 105 °F
N
9
Wind Variable Wind from South

Today
High -- | Low -- °F
--% Chance of Precip.
Yesterday
High -- | Low -- °F
Precip. -- in
6:41 AM 6:59 PM
Waxing Crescent, 9% visible
Pressure 29.83 in
Visibility 5.0 miles
Clouds Few 1300 ft
Heat Index 105 °F
Dew Point 79 °F
Humidity 70%
Rainfall 0.00 in
Snow Depth Not available.
UV 8 out of 12
Pollen Not available.
Air Quality Not available.
Flu Activity Not available.
METAR DBBB 210900Z 19008KT 8000 FEW013 32/26 Q1010 NOSIG

More Conditions Fewer Conditions

Pressure 29.83 in
Visibility 5.0 miles
Clouds Few 1300 ft
Heat Index 105 °F
Dew Point 79 °F
Humidity 70%
Rainfall 0.00 in
Snow Depth Not available.
UV 8 out of 12
Pollen Not available.
Air Quality Not available.
Flu Activity Not available.
METAR DBBB 210900Z 19008KT 8000 FEW013 32/26 Q1010 NOSIG

More Conditions Fewer Conditions

10-Day Weather Forecast

Almanac

Astronomy

Apr. 21, 2015 Rise Set
Actual Time
Civil Twilight
Nautical Twilight
Astronomical Twilight
Moon
Length of Visible Light
Length of Day
Tomorrow will be .
, % of the Moon is Illuminated

Today's Extremes

Country Highs Country Lows

Community

WunderPhotos

Upload Photos

1,815,329 photos uploaded!

WunderBlogs® & News

Nearby

Air Quality

  Air Quality AQ Index Pollutant
Not available.

Snow Depth

Station Depth Elevation

Earthquake Activity

City Distance Mag. Time & Date
Minimum magnitude displayed is 2.5.

Coastal Water Temperatures

Place Temperature

Stations

Nearby Weather Stations

Station Location Temp. Windchill Dew Point Humidity Wind Precip. Elev Updated Type